Time;durP1;ratioP1;P1;durP2;ratioP2;P2;SDS_P1;SDS_P2;PMS_P1;PMS_P2;Temp;Humidity;BMP_temperature;BMP_pressure;BME280_temperature;BME280_humidity;BME280_pressure;Samples;Min_cycle;Max_cycle;Signal;HPM_P1;HPM_P2
2023/09/16 00:00:50;;;;;;;1.17;1.17;;;;;;;22.37;100.00;100445.75;5073703;28;20577;-80
2023/09/16 00:03:17;;;;;;;0.90;0.90;;;;;;;22.30;100.00;100449.47;5073492;28;20705;-80
2023/09/16 00:05:45;;;;;;;0.65;0.65;;;;;;;22.24;100.00;100424.09;5073232;28;20568;-79
2023/09/16 00:08:12;;;;;;;0.80;0.80;;;;;;;22.27;100.00;100446.91;5069110;28;20198;-78
2023/09/16 00:10:38;;;;;;;1.88;1.25;;;;;;;22.21;100.00;100443.56;5055165;28;20191;-79
2023/09/16 00:13:05;;;;;;;1.83;1.60;;;;;;;22.33;100.00;100465.28;5038055;28;20226;-80
2023/09/16 00:15:32;;;;;;;1.08;1.08;;;;;;;22.12;100.00;100440.28;5073499;28;20203;-80
2023/09/16 00:18:00;;;;;;;1.08;1.08;;;;;;;22.15;100.00;100456.91;5038598;28;20203;-78
2023/09/16 00:20:28;;;;;;;0.80;0.80;;;;;;;22.10;100.00;100458.81;5073029;28;20313;-79
2023/09/16 00:22:57;;;;;;;1.00;1.00;;;;;;;22.28;100.00;100483.00;5073649;28;20644;-78
2023/09/16 00:25:23;;;;;;;0.70;0.70;;;;;;;21.86;100.00;100448.84;5073764;28;20206;-79
2023/09/16 00:27:52;;;;;;;0.80;0.80;;;;;;;21.99;100.00;100484.63;5073753;28;20206;-79
2023/09/16 00:30:19;;;;;;;0.98;0.98;;;;;;;21.98;100.00;100480.25;5073873;28;20241;-79
2023/09/16 00:32:46;;;;;;;0.80;0.80;;;;;;;21.99;100.00;100489.91;5073523;28;20203;-77
2023/09/16 00:35:13;;;;;;;1.10;1.10;;;;;;;22.03;100.00;100498.63;5073387;28;20206;-79
2023/09/16 00:37:41;;;;;;;0.88;0.88;;;;;;;22.05;100.00;100502.97;5055212;28;20204;-78
2023/09/16 00:40:10;;;;;;;0.80;0.80;;;;;;;22.16;100.00;100500.91;5053573;28;20231;-77
2023/09/16 00:42:38;;;;;;;2.10;1.20;;;;;;;22.13;100.00;100503.63;5018575;28;20282;-79
2023/09/16 00:45:06;;;;;;;0.70;0.70;;;;;;;22.18;100.00;100493.84;5053216;28;20199;-78
2023/09/16 00:47:34;;;;;;;0.82;0.82;;;;;;;22.21;100.00;100499.03;5011307;28;20198;-78
2023/09/16 00:50:01;;;;;;;0.68;0.68;;;;;;;22.37;100.00;100522.38;5072750;28;20203;-78
2023/09/16 00:52:28;;;;;;;0.90;0.90;;;;;;;22.41;100.00;100505.56;5054400;28;20210;-78
2023/09/16 00:54:55;;;;;;;0.60;0.60;;;;;;;22.54;100.00;100517.56;5073363;28;20241;-77
2023/09/16 00:57:23;;;;;;;0.68;0.68;;;;;;;22.63;100.00;100518.16;5072663;28;20191;-79
2023/09/16 00:59:50;;;;;;;1.45;1.38;;;;;;;22.55;100.00;100513.97;5072681;28;20214;-77
2023/09/16 01:02:18;;;;;;;1.05;1.05;;;;;;;22.55;100.00;100513.97;5053873;28;20197;-79
2023/09/16 01:04:46;;;;;;;0.80;0.80;;;;;;;22.57;100.00;100507.75;5054087;28;20201;-79
2023/09/16 01:07:14;;;;;;;0.88;0.88;;;;;;;22.52;100.00;100506.13;5071873;28;20203;-80
2023/09/16 01:09:41;;;;;;;0.88;0.88;;;;;;;22.48;100.00;100512.41;5037904;28;20194;-79
2023/09/16 01:12:08;;;;;;;0.80;0.80;;;;;;;22.22;100.00;100508.66;5072065;28;20601;-78
2023/09/16 01:14:38;;;;;;;2.08;1.98;;;;;;;22.29;100.00;100511.19;5072458;28;20741;-78
2023/09/16 01:17:10;;;;;;;0.80;0.80;;;;;;;22.16;100.00;100513.25;5071754;28;20191;-79
2023/09/16 01:19:43;;;;;;;0.77;0.77;;;;;;;22.13;100.00;100522.13;5059196;28;20690;-79
2023/09/16 01:22:11;;;;;;;1.00;1.00;;;;;;;22.05;100.00;100526.72;5050146;28;20667;-79
2023/09/16 01:24:38;;;;;;;0.80;0.80;;;;;;;22.07;100.00;100524.06;5052855;28;20230;-78
2023/09/16 01:27:07;;;;;;;0.70;0.70;;;;;;;22.10;100.00;100532.78;5067696;28;20278;-78
2023/09/16 01:29:34;;;;;;;1.20;1.20;;;;;;;22.10;100.00;100532.78;5072125;28;20203;-77
2023/09/16 01:32:04;;;;;;;0.90;0.90;;;;;;;22.07;100.00;100532.84;5070534;28;20801;-77
2023/09/16 01:34:39;;;;;;;0.90;0.90;;;;;;;22.12;100.00;100530.94;5072278;28;20194;-79
2023/09/16 01:37:07;;;;;;;1.00;1.00;;;;;;;22.04;100.00;100525.00;5071738;28;20269;-79
2023/09/16 01:39:36;;;;;;;1.00;1.00;;;;;;;21.99;100.00;100524.25;5071876;28;20230;-76
2023/09/16 01:42:03;;;;;;;0.68;0.68;;;;;;;21.78;100.00;100522.09;5071641;28;20702;-78
2023/09/16 01:44:32;;;;;;;0.75;0.75;;;;;;;21.81;100.00;100516.72;5071829;28;20195;-77
2023/09/16 01:46:59;;;;;;;0.82;0.82;;;;;;;21.60;100.00;100520.75;5072015;28;20282;-78
2023/09/16 01:49:25;;;;;;;0.80;0.80;;;;;;;21.58;100.00;100511.16;5072297;28;20191;-79
2023/09/16 01:51:52;;;;;;;1.35;1.17;;;;;;;21.58;100.00;100519.06;5071844;28;20207;-78
2023/09/16 01:54:19;;;;;;;0.90;0.90;;;;;;;21.47;100.00;100503.47;5036036;28;20194;-79
2023/09/16 01:56:47;;;;;;;1.00;1.00;;;;;;;21.47;100.00;100516.66;5070950;28;20213;-78
2023/09/16 01:59:13;;;;;;;0.70;0.70;;;;;;;21.53;100.00;100540.25;5071610;28;20226;-79
2023/09/16 02:01:42;;;;;;;0.85;0.85;;;;;;;21.56;100.00;100513.81;5071732;28;20203;-77
2023/09/16 02:04:09;;;;;;;1.17;1.17;;;;;;;21.66;100.00;100546.13;5070502;28;20194;-77
2023/09/16 02:06:36;;;;;;;0.80;0.80;;;;;;;21.62;100.00;100549.72;5070984;28;20210;-78
2023/09/16 02:09:03;;;;;;;0.73;0.73;;;;;;;21.66;100.00;100539.06;5071708;28;20198;-78
2023/09/16 02:11:30;;;;;;;0.85;0.85;;;;;;;21.57;100.00;100526.09;5071329;28;20199;-78
2023/09/16 02:13:58;;;;;;;2.35;1.20;;;;;;;21.69;100.00;100548.69;5036515;28;20226;-79
2023/09/16 02:16:25;;;;;;;0.70;0.70;;;;;;;21.49;100.00;100535.09;5071362;28;20191;-79
2023/09/16 02:18:53;;;;;;;0.80;0.80;;;;;;;21.59;100.00;100541.88;5071663;28;20202;-78
2023/09/16 02:21:21;;;;;;;0.90;0.90;;;;;;;21.57;100.00;100546.34;5036024;28;20195;-79
2023/09/16 02:23:48;;;;;;;0.80;0.80;;;;;;;21.23;100.00;100478.47;5036092;28;20267;-78
2023/09/16 02:26:15;;;;;;;1.15;1.15;;;;;;;21.63;100.00;100541.78;5071275;28;20593;-78
2023/09/16 02:28:41;;;;;;;1.58;1.58;;;;;;;21.58;100.00;100545.44;5016432;28;20222;-77
2023/09/16 02:31:09;;;;;;;0.85;0.85;;;;;;;21.49;100.00;100543.88;5051069;28;20204;-79
2023/09/16 02:33:36;;;;;;;0.70;0.70;;;;;;;21.44;100.00;100523.78;5060542;28;20207;-78
2023/09/16 02:36:05;;;;;;;0.80;0.80;;;;;;;21.46;100.00;100514.03;5071504;28;20674;-78
2023/09/16 02:38:32;;;;;;;0.80;0.80;;;;;;;21.42;100.00;100534.34;5017790;28;20196;-79
2023/09/16 02:40:59;;;;;;;2.20;1.08;;;;;;;21.45;100.00;100536.06;5051223;28;20219;-78
2023/09/16 02:43:25;;;;;;;0.80;0.80;;;;;;;21.42;100.00;100536.13;5053774;28;20200;-78
2023/09/16 02:45:52;;;;;;;0.85;0.85;;;;;;;21.41;100.00;100534.38;5055454;28;20203;-76
2023/09/16 02:48:19;;;;;;;0.95;0.90;;;;;;;21.44;100.00;100534.34;5055356;28;20207;-78
2023/09/16 02:50:47;;;;;;;1.20;1.20;;;;;;;21.48;100.00;100530.69;5071597;28;20206;-77
2023/09/16 02:53:17;;;;;;;2.00;1.90;;;;;;;21.47;100.00;100532.50;5074853;28;20202;-78
2023/09/16 02:55:44;;;;;;;1.38;1.38;;;;;;;21.38;100.00;100530.03;5075349;28;20708;-78
2023/09/16 02:58:11;;;;;;;1.13;1.10;;;;;;;21.42;100.00;100537.00;5075107;28;20202;-78
2023/09/16 03:00:37;;;;;;;0.70;0.70;;;;;;;21.43;100.00;100527.31;5074844;28;20214;-78
2023/09/16 03:03:05;;;;;;;1.42;1.10;;;;;;;21.43;100.00;100527.31;5074789;28;20202;-79
2023/09/16 03:05:31;;;;;;;1.15;1.15;;;;;;;21.40;100.00;100530.03;5074858;28;20210;-79
2023/09/16 03:07:58;;;;;;;1.13;1.13;;;;;;;21.33;100.00;100525.78;5074259;28;20190;-77
2023/09/16 03:10:26;;;;;;;1.50;1.15;;;;;;;21.32;100.00;100524.03;5074716;28;20201;-78
2023/09/16 03:12:53;;;;;;;0.65;0.65;;;;;;;21.20;100.00;100515.47;5074837;28;20218;-79
2023/09/16 03:15:21;;;;;;;1.73;1.63;;;;;;;21.24;100.00;100522.44;5074383;28;20213;-79
2023/09/16 03:17:47;;;;;;;1.30;1.30;;;;;;;21.16;100.00;100519.09;5074251;28;20199;-78
2023/09/16 03:20:14;;;;;;;0.90;0.90;;;;;;;21.11;100.00;100506.91;5059602;28;20702;-78
2023/09/16 03:22:41;;;;;;;0.57;0.57;;;;;;;21.22;100.00;100526.84;5074307;28;20666;-78
2023/09/16 03:25:08;;;;;;;1.48;1.35;;;;;;;21.32;100.00;100530.19;5074893;28;20199;-78
2023/09/16 03:27:37;;;;;;;4.40;1.40;;;;;;;21.37;100.00;100530.09;5074652;28;20214;-78
2023/09/16 03:30:05;;;;;;;0.80;0.80;;;;;;;21.32;100.00;100531.94;5073995;28;20281;-78
2023/09/16 03:32:31;;;;;;;0.80;0.80;;;;;;;21.20;100.00;100531.31;5073982;28;20227;-78
2023/09/16 03:34:58;;;;;;;0.68;0.68;;;;;;;21.29;100.00;100538.19;5074374;28;20202;-78
2023/09/16 03:37:25;;;;;;;1.00;1.00;;;;;;;21.22;100.00;100537.41;5074497;28;20194;-79
2023/09/16 03:39:52;;;;;;;1.08;1.08;;;;;;;20.73;100.00;100441.75;5074529;28;20319;-78
2023/09/16 03:42:18;;;;;;;1.13;1.13;;;;;;;21.33;100.00;100536.34;5073764;28;20195;-78
2023/09/16 03:44:47;;;;;;;2.30;1.67;;;;;;;21.27;100.00;100532.03;5074484;28;20564;-79
2023/09/16 03:47:13;;;;;;;0.80;0.80;;;;;;;21.25;100.00;100537.38;5074124;28;20195;-78
2023/09/16 03:49:40;;;;;;;0.77;0.77;;;;;;;21.08;100.00;100534.16;5038918;28;20217;-76
2023/09/16 03:52:07;;;;;;;0.88;0.88;;;;;;;21.16;100.00;100545.47;5073865;28;20209;-79
2023/09/16 03:54:34;;;;;;;1.88;1.77;;;;;;;21.17;100.00;100546.34;5073261;28;20576;-79
2023/09/16 03:57:00;;;;;;;1.23;1.15;;;;;;;21.29;100.00;100550.50;5034721;28;20207;-76
2023/09/16 03:59:27;;;;;;;1.10;1.10;;;;;;;21.33;100.00;100546.88;5068367;28;20202;-77
2023/09/16 04:01:55;;;;;;;1.65;1.55;;;;;;;21.45;100.00;100557.16;5037583;28;20206;-77
2023/09/16 04:04:22;;;;;;;1.45;1.35;;;;;;;21.13;100.00;100521.78;5073422;28;20214;-69
2023/09/16 04:06:49;;;;;;;0.82;0.82;;;;;;;21.27;100.00;100563.69;5074232;28;20203;-80
2023/09/16 04:09:16;;;;;;;1.10;1.10;;;;;;;21.22;100.00;100547.13;5071808;28;20198;-79
2023/09/16 04:11:42;;;;;;;0.75;0.75;;;;;;;21.34;100.00;100570.59;5067712;28;20728;-79
2023/09/16 04:14:09;;;;;;;0.60;0.60;;;;;;;21.40;100.00;100577.53;5073016;28;20230;-78
2023/09/16 04:16:39;;;;;;;0.90;0.90;;;;;;;21.45;100.00;100573.00;5072736;28;20198;-75
2023/09/16 04:19:07;;;;;;;1.85;1.75;;;;;;;21.61;100.00;100585.84;5072779;28;20191;-78
2023/09/16 04:21:33;;;;;;;0.85;0.85;;;;;;;21.70;100.00;100584.75;5070510;28;20230;-72
2023/09/16 04:24:00;;;;;;;0.90;0.90;;;;;;;21.75;100.00;100583.75;5070339;28;20216;-78
2023/09/16 04:26:27;;;;;;;1.38;0.95;;;;;;;21.80;100.00;100583.63;5072912;28;20202;-79
2023/09/16 04:28:54;;;;;;;0.80;0.80;;;;;;;21.68;100.00;100582.16;5069943;28;20194;-80
2023/09/16 04:31:20;;;;;;;1.33;1.23;;;;;;;21.59;100.00;100576.19;5073679;28;20195;-79
2023/09/16 04:33:48;;;;;;;0.80;0.80;;;;;;;21.57;100.00;100578.03;5073110;28;20206;-74
2023/09/16 04:36:16;;;;;;;0.65;0.65;;;;;;;21.60;100.00;100557.69;5073240;28;20653;-78
2023/09/16 04:38:43;;;;;;;1.00;1.00;;;;;;;21.91;100.00;100588.69;5057115;28;20199;-79
2023/09/16 04:41:10;;;;;;;0.98;0.98;;;;;;;22.03;100.00;100599.00;5072988;28;20227;-79
2023/09/16 04:43:36;;;;;;;1.15;1.15;;;;;;;22.28;100.00;100605.44;5055285;28;20655;-78
2023/09/16 04:46:03;;;;;;;0.80;0.80;;;;;;;22.66;100.00;100607.09;5040581;28;20689;-76
2023/09/16 04:48:30;;;;;;;1.10;1.10;;;;;;;22.69;100.00;100580.59;5073263;28;20203;-74
2023/09/16 04:50:57;;;;;;;0.70;0.70;;;;;;;22.81;100.00;100608.50;5072878;28;20752;-78
2023/09/16 04:53:26;;;;;;;0.80;0.80;;;;;;;22.82;100.00;100603.19;5072909;28;20187;-80
2023/09/16 04:55:59;;;;;;;1.27;1.27;;;;;;;22.98;100.00;100604.50;5068701;28;20205;-80
2023/09/16 04:58:26;;;;;;;0.95;0.95;;;;;;;23.13;100.00;100587.31;5072974;28;20210;-79
2023/09/16 05:00:53;;;;;;;0.70;0.70;;;;;;;23.46;100.00;100612.00;5073079;28;20257;-79
2023/09/16 05:03:20;;;;;;;0.93;0.93;;;;;;;23.31;100.00;100622.97;5072931;28;20195;-79
2023/09/16 05:05:47;;;;;;;1.00;1.00;;;;;;;23.21;100.00;100620.63;5069567;28;20198;-71
2023/09/16 05:08:13;;;;;;;1.40;1.30;;;;;;;23.05;100.00;100621.94;5066261;28;20200;-71
2023/09/16 05:10:42;;;;;;;1.75;1.55;;;;;;;23.11;100.00;100628.84;5070076;28;20203;-71
2023/09/16 05:13:08;;;;;;;1.30;1.30;;;;;;;23.18;100.00;100627.78;5069959;28;20226;-71
2023/09/16 05:15:35;;;;;;;2.95;1.10;;;;;;;23.01;100.00;100635.31;5061389;28;20210;-72
2023/09/16 05:18:02;;;;;;;1.40;1.40;;;;;;;22.83;100.00;100588.19;5056821;28;20574;-72
2023/09/16 05:20:29;;;;;;;1.00;1.00;;;;;;;22.86;100.00;100598.69;5060245;28;20725;-72
2023/09/16 05:22:56;;;;;;;1.13;1.13;;;;;;;22.52;100.00;100598.66;5070626;28;20578;-72
2023/09/16 05:25:22;;;;;;;1.13;1.13;;;;;;;22.44;100.00;100629.72;5069332;28;20284;-75
2023/09/16 05:27:50;;;;;;;1.05;1.05;;;;;;;22.39;100.00;100613.09;5035837;28;20202;-72
2023/09/16 05:30:17;;;;;;;2.47;2.38;;;;;;;22.47;100.00;100637.56;5070158;28;20257;-73
2023/09/16 05:32:44;;;;;;;1.60;1.52;;;;;;;22.73;100.00;100651.00;5071340;28;20221;-71
2023/09/16 05:35:11;;;;;;;0.80;0.80;;;;;;;23.20;100.00;100631.22;5071410;28;20199;-76
2023/09/16 05:37:38;;;;;;;0.98;0.98;;;;;;;23.57;100.00;100660.22;5070145;28;20203;-75
2023/09/16 05:40:05;;;;;;;1.10;0.85;;;;;;;23.54;100.00;100660.31;5062475;28;20202;-76
2023/09/16 05:42:32;;;;;;;5.13;1.77;;;;;;;23.74;100.00;100665.88;5035969;28;20203;-75
2023/09/16 05:45:01;;;;;;;0.95;0.95;;;;;;;23.55;100.00;100622.31;5071299;28;20214;-75
2023/09/16 05:47:29;;;;;;;0.80;0.80;;;;;;;23.50;100.00;100642.75;5071026;28;20203;-75
2023/09/16 05:49:56;;;;;;;0.85;0.85;;;;;;;23.76;100.00;100685.22;5071031;28;20584;-76
2023/09/16 05:52:23;;;;;;;2.30;2.13;;;;;;;23.90;100.00;100683.03;5071064;28;20210;-75
2023/09/16 05:54:50;;;;;;;3.17;1.33;;;;;;;23.59;100.00;100684.84;5070943;28;20207;-75
2023/09/16 05:57:16;;;;;;;3.00;2.70;;;;;;;23.52;100.00;100675.34;5070804;28;20583;-71
2023/09/16 05:59:43;;;;;;;1.25;1.08;;;;;;;23.73;100.00;100679.16;5070662;28;20199;-77
2023/09/16 06:02:11;;;;;;;1.25;1.25;;;;;;;23.74;100.00;100681.75;5070468;28;20249;-75
2023/09/16 06:04:38;;;;;;;0.95;0.95;;;;;;;23.82;100.00;100679.75;5070275;28;20573;-75
2023/09/16 06:07:05;;;;;;;1.60;1.60;;;;;;;23.89;100.00;100665.41;5070920;28;20585;-75
2023/09/16 06:09:32;;;;;;;1.02;1.02;;;;;;;23.78;100.00;100672.81;5070730;28;20203;-74
2023/09/16 06:11:58;;;;;;;0.85;0.85;;;;;;;24.10;100.00;100674.50;5035613;28;20206;-74
2023/09/16 06:14:25;;;;;;;1.15;1.15;;;;;;;24.35;100.00;100678.13;5035269;28;20230;-74
2023/09/16 06:16:52;;;;;;;1.10;1.10;;;;;;;24.28;100.00;100683.69;5070401;28;20234;-74
2023/09/16 06:19:20;;;;;;;1.45;1.27;;;;;;;24.17;100.00;100681.38;5070208;28;20209;-74
2023/09/16 06:21:47;;;;;;;0.90;0.90;;;;;;;23.90;100.00;100648.59;5068585;28;20222;-74
2023/09/16 06:24:14;;;;;;;1.30;1.27;;;;;;;23.41;100.00;100582.09;5051100;28;20230;-74
2023/09/16 06:26:41;;;;;;;0.80;0.80;;;;;;;23.93;100.00;100672.38;5050835;28;20203;-74
2023/09/16 06:29:07;;;;;;;0.90;0.90;;;;;;;23.96;100.00;100677.56;5050675;28;20195;-75
2023/09/16 06:31:34;;;;;;;1.80;1.70;;;;;;;23.98;100.00;100677.50;5050343;28;20207;-74
2023/09/16 06:34:02;;;;;;;2.97;1.48;;;;;;;24.24;100.00;100687.34;5050121;28;20250;-74
2023/09/16 06:36:30;;;;;;;0.73;0.73;;;;;;;24.40;100.00;100691.25;5050735;28;20204;-74
2023/09/16 06:38:57;;;;;;;0.73;0.73;;;;;;;24.38;100.00;100698.38;5050729;28;20648;-75
2023/09/16 06:41:23;;;;;;;5.43;1.65;;;;;;;24.31;100.00;100687.09;5050529;28;20625;-75
2023/09/16 06:43:50;;;;;;;1.45;1.45;;;;;;;24.52;100.00;100714.72;5050527;28;20206;-75
2023/09/16 06:46:18;;;;;;;0.90;0.90;;;;;;;24.53;100.00;100708.50;5050589;28;20195;-74
2023/09/16 06:48:45;;;;;;;2.17;1.55;;;;;;;24.29;100.00;100701.34;5050449;28;20254;-74
2023/09/16 06:51:12;;;;;;;0.98;0.98;;;;;;;24.29;100.00;100711.94;5015775;28;20747;-75
2023/09/16 06:53:40;;;;;;;1.25;1.25;;;;;;;24.57;100.00;100691.56;5050238;28;20614;-75
2023/09/16 06:56:06;;;;;;;1.02;1.02;;;;;;;24.79;100.00;100713.84;5050266;28;20195;-74
2023/09/16 06:58:33;;;;;;;1.02;1.02;;;;;;;24.70;100.00;100716.78;5050300;28;20202;-74
2023/09/16 07:01:08;;;;;;;0.80;0.80;;;;;;;24.17;100.00;100623.06;5015008;28;20722;-73
2023/09/16 07:03:35;;;;;;;1.00;1.00;;;;;;;24.24;100.00;100722.66;5050718;28;20234;-78
2023/09/16 07:06:01;;;;;;;1.73;1.73;;;;;;;24.32;100.00;100717.13;5050873;28;20203;-77
2023/09/16 07:08:28;;;;;;;2.25;2.15;;;;;;;24.14;100.00;100723.88;5050666;28;20614;-78
2023/09/16 07:10:56;;;;;;;1.55;1.52;;;;;;;24.37;100.00;100726.66;5050492;28;20196;-77
2023/09/16 07:13:23;;;;;;;1.45;1.45;;;;;;;24.43;100.00;100726.50;5015793;28;20227;-78
2023/09/16 07:15:53;;;;;;;1.38;1.25;;;;;;;24.25;100.00;100705.88;5050500;28;20777;-78
2023/09/16 07:18:20;;;;;;;1.45;1.45;;;;;;;24.16;100.00;100717.59;5031133;28;20674;-79
2023/09/16 07:20:47;;;;;;;0.75;0.75;;;;;;;24.23;100.00;100723.56;5070290;28;20713;-75
2023/09/16 07:23:13;;;;;;;0.80;0.80;;;;;;;24.14;100.00;100698.25;5069593;28;20203;-77
2023/09/16 07:25:40;;;;;;;0.80;0.80;;;;;;;23.96;100.00;100730.56;5057154;28;20714;-77
2023/09/16 07:28:10;;;;;;;1.38;1.38;;;;;;;24.10;100.00;100723.06;5066042;28;20710;-73
2023/09/16 07:30:37;;;;;;;0.90;0.90;;;;;;;24.10;100.00;100723.06;5073670;28;20241;-78
2023/09/16 07:33:04;;;;;;;1.13;1.13;;;;;;;24.19;100.00;100724.59;5073505;28;20203;-77
2023/09/16 07:35:30;;;;;;;1.27;0.88;;;;;;;24.26;100.00;100717.34;5073727;28;20206;-78
2023/09/16 07:37:57;;;;;;;1.65;1.38;;;;;;;24.38;100.00;100706.31;5073925;28;20194;-78
2023/09/16 07:40:24;;;;;;;0.90;0.90;;;;;;;24.60;100.00;100725.94;5074131;28;20224;-75
2023/09/16 07:42:51;;;;;;;1.13;1.13;;;;;;;24.64;100.00;100733.78;5073967;28;20603;-78
2023/09/16 07:45:19;;;;;;;2.20;2.03;;;;;;;24.80;100.00;100728.81;5038374;28;20252;-77
2023/09/16 07:47:47;;;;;;;3.78;1.10;;;;;;;24.75;100.00;100728.13;5073731;28;20203;-78
2023/09/16 07:50:14;;;;;;;10.55;1.85;;;;;;;24.82;100.00;100728.78;5073635;28;20194;-78
2023/09/16 07:52:42;;;;;;;1.23;1.20;;;;;;;24.58;100.00;100709.19;5073929;28;20264;-77
2023/09/16 07:55:09;;;;;;;2.80;1.33;;;;;;;24.82;100.00;100740.25;5072076;28;20222;-77
2023/09/16 07:57:36;;;;;;;0.60;0.60;;;;;;;24.73;100.00;100743.19;5068612;28;20211;-79
2023/09/16 08:00:05;;;;;;;3.03;1.27;;;;;;;24.75;100.00;100749.34;5060350;28;20199;-79
2023/09/16 08:02:33;;;;;;;1.27;1.15;;;;;;;25.12;100.00;100739.25;5066707;28;20222;-76
2023/09/16 08:05:00;;;;;;;0.95;0.95;;;;;;;25.13;100.00;100746.28;5061562;28;20206;-79
2023/09/16 08:07:28;;;;;;;1.70;1.35;;;;;;;24.91;100.00;100741.75;5071696;28;20597;-77
2023/09/16 08:09:55;;;;;;;1.52;1.52;;;;;;;24.88;100.00;100745.38;5073560;28;20301;-78
2023/09/16 08:12:23;;;;;;;1.08;1.08;;;;;;;24.99;100.00;100711.41;5070324;28;20298;-79
2023/09/16 08:14:50;;;;;;;0.90;0.90;;;;;;;25.32;100.00;100756.28;5063920;28;20745;-79
2023/09/16 08:17:16;;;;;;;0.95;0.95;;;;;;;25.24;100.00;100755.69;5072072;28;20603;-78
2023/09/16 08:19:44;;;;;;;1.75;1.25;;;;;;;25.58;100.00;100748.28;5062230;28;20210;-79
2023/09/16 08:22:11;;;;;;;1.23;1.23;;;;;;;25.62;100.00;100752.56;5059250;28;20234;-78
2023/09/16 08:24:38;;;;;;;1.17;1.17;;;;;;;25.38;100.00;100745.44;5037273;28;20207;-78
2023/09/16 08:27:05;;;;;;;1.05;1.05;;;;;;;25.62;100.00;100753.44;5072978;28;20202;-76
2023/09/16 08:29:32;;;;;;;1.15;1.15;;;;;;;25.94;100.00;100736.31;5061318;28;20556;-71
2023/09/16 08:31:59;;;;;;;1.00;1.00;;;;;;;26.23;100.00;100743.19;5072437;28;20256;-75
2023/09/16 08:34:25;;;;;;;1.10;1.10;;;;;;;26.13;100.00;100713.41;5062981;28;20199;-78
2023/09/16 08:36:53;;;;;;;1.65;1.63;;;;;;;26.64;100.00;100752.22;5072622;28;20203;-79
2023/09/16 08:39:20;;;;;;;1.75;1.75;;;;;;;26.40;100.00;100745.19;5058958;28;20203;-79
2023/09/16 08:41:52;;;;;;;0.77;0.77;;;;;;;26.71;100.00;100748.38;5072070;28;20234;-81
2023/09/16 08:44:23;;;;;;;1.25;1.25;;;;;;;26.76;100.00;100759.69;5072874;28;20285;-78
2023/09/16 08:46:56;;;;;;;2.25;1.55;;;;;;;27.08;100.00;100758.38;5074876;28;20206;-77
2023/09/16 08:49:25;;;;;;;4.13;2.13;;;;;;;26.64;100.00;100704.31;5072614;28;20199;-78
2023/09/16 08:51:58;;;;;;;1.02;1.02;;;;;;;26.56;100.00;100725.91;5072045;28;20732;-77
2023/09/16 08:54:28;;;;;;;1.05;1.05;;;;;;;26.52;100.00;100755.34;5071950;28;20206;-77
2023/09/16 08:56:55;;;;;;;1.17;1.17;;;;;;;26.45;100.00;100753.88;5071843;28;20203;-78
2023/09/16 08:59:22;;;;;;;1.20;1.20;;;;;;;26.70;100.00;100764.41;5071763;28;20203;-78
2023/09/16 09:01:49;;;;;;;3.60;1.23;;;;;;;26.89;100.00;100758.31;5071843;28;20363;-75
2023/09/16 09:04:17;;;;;;;1.05;1.05;;;;;;;26.70;100.00;100767.94;5067083;28;20199;-77
2023/09/16 09:06:44;;;;;;;0.80;0.80;;;;;;;26.72;100.00;100735.94;5072262;28;20218;-77
2023/09/16 09:09:12;;;;;;;1.08;1.08;;;;;;;27.22;100.00;100764.00;5072205;28;20199;-77
2023/09/16 09:11:40;;;;;;;2.58;2.47;;;;;;;27.27;100.00;100761.13;5071652;28;20202;-77
2023/09/16 09:14:09;;;;;;;1.30;1.30;;;;;;;27.30;100.00;100766.31;5071670;28;20234;-79
2023/09/16 09:16:39;;;;;;;1.17;1.15;;;;;;;27.17;100.00;100767.78;5071349;28;20680;-75
2023/09/16 09:19:06;;;;;;;1.33;1.33;;;;;;;27.24;99.82;100750.63;5071094;28;20199;-75
2023/09/16 09:21:33;;;;;;;1.27;1.17;;;;;;;27.05;100.00;100771.81;5070932;28;20249;-73
2023/09/16 09:24:00;;;;;;;1.20;1.20;;;;;;;26.63;100.00;100739.84;5028033;28;20206;-77
2023/09/16 09:26:28;;;;;;;1.88;1.70;;;;;;;26.74;100.00;100777.53;5066468;28;20256;-79
2023/09/16 09:28:55;;;;;;;1.23;1.23;;;;;;;26.28;100.00;100781.13;5071280;28;20690;-79
2023/09/16 09:31:23;;;;;;;1.00;1.00;;;;;;;26.27;100.00;100781.19;5071197;28;20203;-78
2023/09/16 09:33:50;;;;;;;1.17;1.17;;;;;;;26.22;100.00;100789.31;5034812;28;20203;-78
2023/09/16 09:36:17;;;;;;;0.60;0.60;;;;;;;26.03;100.00;100777.63;5033989;28;20223;-78
2023/09/16 09:38:46;;;;;;;1.80;1.70;;;;;;;25.78;100.00;100787.44;5052255;28;20210;-78
2023/09/16 09:41:13;;;;;;;1.40;1.40;;;;;;;25.57;100.00;100749.22;5065503;28;20200;-78
2023/09/16 09:43:42;;;;;;;1.00;1.00;;;;;;;25.68;100.00;100791.34;5065726;28;20264;-77
2023/09/16 09:46:08;;;;;;;1.13;1.13;;;;;;;25.65;100.00;100792.28;5067879;28;20199;-76
2023/09/16 09:48:37;;;;;;;0.82;0.82;;;;;;;25.71;100.00;100785.91;5063026;28;20207;-75
2023/09/16 09:51:04;;;;;;;0.98;0.98;;;;;;;25.71;100.00;100792.09;5069520;28;20198;-76
2023/09/16 09:53:31;;;;;;;2.30;0.85;;;;;;;25.79;100.00;100790.00;5068630;28;20207;-77
2023/09/16 09:55:57;;;;;;;1.58;1.48;;;;;;;25.51;100.00;100789.25;5069062;28;20206;-76
2023/09/16 09:58:25;;;;;;;0.75;0.75;;;;;;;25.33;100.00;100766.00;5063614;28;20264;-77
2023/09/16 10:00:53;;;;;;;1.10;1.10;;;;;;;25.56;100.00;100776.69;5058657;28;20294;-80
2023/09/16 10:03:23;;;;;;;0.93;0.93;;;;;;;25.58;100.00;100775.72;5066048;28;20269;-80
2023/09/16 10:05:50;;;;;;;1.42;1.42;;;;;;;25.53;100.00;100790.97;5063348;28;20237;-75
2023/09/16 10:08:17;;;;;;;1.33;1.33;;;;;;;25.54;100.00;100790.03;5069918;28;20234;-76
2023/09/16 10:10:47;;;;;;;1.00;1.00;;;;;;;25.29;100.00;100751.09;5069985;28;20629;-77
2023/09/16 10:13:14;;;;;;;1.20;1.20;;;;;;;25.47;100.00;100796.44;5070099;28;20736;-79
2023/09/16 10:15:40;;;;;;;0.70;0.70;;;;;;;25.15;100.00;100800.19;5061868;28;20211;-79
2023/09/16 10:18:09;;;;;;;0.90;0.90;;;;;;;25.31;100.00;100794.38;5048126;28;20289;-79
2023/09/16 10:20:39;;;;;;;1.75;1.10;;;;;;;24.96;100.00;100790.25;5061068;28;20214;-76
2023/09/16 10:23:06;;;;;;;1.50;1.50;;;;;;;24.83;100.00;100779.16;5060252;28;20230;-74
2023/09/16 10:25:34;;;;;;;1.77;1.70;;;;;;;24.77;100.00;100786.41;5066828;28;20230;-75
2023/09/16 10:28:03;;;;;;;1.23;1.23;;;;;;;25.08;100.00;100790.69;5070217;28;20206;-74
2023/09/16 10:30:31;;;;;;;6.00;4.90;;;;;;;25.23;100.00;100772.50;5059584;28;20207;-77
2023/09/16 10:33:00;;;;;;;1.20;1.20;;;;;;;25.50;100.00;100788.38;5069465;28;20234;-79
2023/09/16 10:35:29;;;;;;;2.20;2.08;;;;;;;25.28;100.00;100783.84;5068203;28;20792;-77
2023/09/16 10:38:01;;;;;;;1.23;1.23;;;;;;;25.06;100.00;100784.59;5065473;28;20278;-77
2023/09/16 10:40:28;;;;;;;0.70;0.70;;;;;;;24.62;100.00;100711.72;5070333;28;20210;-79
2023/09/16 10:42:57;;;;;;;1.00;1.00;;;;;;;25.13;100.00;100745.44;5034897;28;20272;-79
2023/09/16 10:45:26;;;;;;;0.95;0.95;;;;;;;25.75;100.00;100785.75;5070639;28;20198;-78
2023/09/16 10:47:53;;;;;;;0.82;0.82;;;;;;;25.61;100.00;100778.25;5035850;28;20238;-78
2023/09/16 10:50:24;;;;;;;0.90;0.90;;;;;;;25.28;100.00;100765.28;5065421;28;20215;-79
2023/09/16 10:52:57;;;;;;;1.23;1.05;;;;;;;25.32;100.00;100765.13;5070759;28;20313;-79
2023/09/16 10:55:31;;;;;;;0.77;0.77;;;;;;;25.35;100.00;100759.69;5060567;28;20194;-80
2023/09/16 10:58:04;;;;;;;0.90;0.90;;;;;;;25.69;100.00;100767.34;5070290;28;20195;-77
2023/09/16 11:00:39;;;;;;;0.80;0.80;;;;;;;25.95;100.00;100754.00;5057232;28;20670;-79
2023/09/16 11:03:10;;;;;;;0.70;0.70;;;;;;;25.91;100.00;100747.06;5060005;28;20280;-77
2023/09/16 11:05:37;;;;;;;0.70;0.70;;;;;;;25.90;100.00;100741.81;5062349;28;20195;-78
2023/09/16 11:08:06;;;;;;;1.42;1.38;;;;;;;25.68;100.00;100744.41;5039076;28;20649;-79
2023/09/16 11:10:33;;;;;;;1.02;1.02;;;;;;;25.82;100.00;100742.09;5074159;28;20707;-78
2023/09/16 11:13:00;;;;;;;1.27;1.27;;;;;;;25.81;100.00;100737.69;5065573;28;20820;-78
2023/09/16 11:15:32;;;;;;;0.80;0.80;;;;;;;25.60;100.00;100747.31;5074435;28;20198;-78
2023/09/16 11:18:03;;;;;;;1.30;1.30;;;;;;;25.67;100.00;100737.34;5074342;28;20222;-77